sensor_id;sensor_type;location;lat;lon;timestamp;temperature;humidity
11140;DHT22;5624;49.388;11.350;2023-02-04T00:01:29;4.30;83.60
11140;DHT22;5624;49.388;11.350;2023-02-04T00:03:55;4.30;83.60
11140;DHT22;5624;49.388;11.350;2023-02-04T00:06:21;4.30;83.70
11140;DHT22;5624;49.388;11.350;2023-02-04T00:08:46;4.30;82.60
11140;DHT22;5624;49.388;11.350;2023-02-04T00:11:12;4.30;83.00
11140;DHT22;5624;49.388;11.350;2023-02-04T00:13:38;4.30;82.90
11140;DHT22;5624;49.388;11.350;2023-02-04T00:16:04;4.30;82.40
11140;DHT22;5624;49.388;11.350;2023-02-04T00:18:29;4.30;82.50
11140;DHT22;5624;49.388;11.350;2023-02-04T00:20:55;4.20;82.50
11140;DHT22;5624;49.388;11.350;2023-02-04T00:23:20;4.20;83.00
11140;DHT22;5624;49.388;11.350;2023-02-04T00:25:46;4.20;83.00
11140;DHT22;5624;49.388;11.350;2023-02-04T00:28:12;4.30;82.80
11140;DHT22;5624;49.388;11.350;2023-02-04T00:30:38;4.20;83.50
11140;DHT22;5624;49.388;11.350;2023-02-04T00:33:03;4.20;83.70
11140;DHT22;5624;49.388;11.350;2023-02-04T00:35:29;4.20;83.50
11140;DHT22;5624;49.388;11.350;2023-02-04T00:37:55;4.20;83.10
11140;DHT22;5624;49.388;11.350;2023-02-04T00:40:20;4.20;83.50
11140;DHT22;5624;49.388;11.350;2023-02-04T00:42:46;4.20;83.70
11140;DHT22;5624;49.388;11.350;2023-02-04T00:45:12;4.20;82.30
11140;DHT22;5624;49.388;11.350;2023-02-04T00:47:38;4.20;82.40
11140;DHT22;5624;49.388;11.350;2023-02-04T00:50:04;4.20;81.70
11140;DHT22;5624;49.388;11.350;2023-02-04T00:52:30;4.20;81.50
11140;DHT22;5624;49.388;11.350;2023-02-04T00:54:55;4.20;80.50
11140;DHT22;5624;49.388;11.350;2023-02-04T00:57:21;4.20;82.00
11140;DHT22;5624;49.388;11.350;2023-02-04T00:59:47;4.20;83.00
11140;DHT22;5624;49.388;11.350;2023-02-04T01:02:13;4.20;83.60
11140;DHT22;5624;49.388;11.350;2023-02-04T01:04:38;4.10;84.20
11140;DHT22;5624;49.388;11.350;2023-02-04T01:07:04;4.20;84.30
11140;DHT22;5624;49.388;11.350;2023-02-04T01:09:30;4.20;84.80
11140;DHT22;5624;49.388;11.350;2023-02-04T01:11:55;4.20;85.00
11140;DHT22;5624;49.388;11.350;2023-02-04T01:14:21;4.10;85.70
11140;DHT22;5624;49.388;11.350;2023-02-04T01:16:46;4.10;85.70
11140;DHT22;5624;49.388;11.350;2023-02-04T01:19:12;4.10;85.80
11140;DHT22;5624;49.388;11.350;2023-02-04T01:21:38;4.00;85.50
11140;DHT22;5624;49.388;11.350;2023-02-04T01:24:03;4.00;85.10
11140;DHT22;5624;49.388;11.350;2023-02-04T01:26:29;4.00;84.40
11140;DHT22;5624;49.388;11.350;2023-02-04T01:28:54;3.90;83.90
11140;DHT22;5624;49.388;11.350;2023-02-04T01:31:20;3.90;84.10
11140;DHT22;5624;49.388;11.350;2023-02-04T01:33:46;3.90;84.10
11140;DHT22;5624;49.388;11.350;2023-02-04T01:36:12;3.90;84.40
11140;DHT22;5624;49.388;11.350;2023-02-04T01:38:38;3.90;84.00
11140;DHT22;5624;49.388;11.350;2023-02-04T01:41:04;3.90;83.70
11140;DHT22;5624;49.388;11.350;2023-02-04T01:43:31;3.90;83.70
11140;DHT22;5624;49.388;11.350;2023-02-04T01:45:57;4.00;83.20
11140;DHT22;5624;49.388;11.350;2023-02-04T01:48:23;4.00;83.20
11140;DHT22;5624;49.388;11.350;2023-02-04T01:50:50;3.90;82.90
11140;DHT22;5624;49.388;11.350;2023-02-04T01:53:22;3.90;83.10
11140;DHT22;5624;49.388;11.350;2023-02-04T01:55:49;3.90;83.60
11140;DHT22;5624;49.388;11.350;2023-02-04T01:58:15;3.90;83.50
11140;DHT22;5624;49.388;11.350;2023-02-04T02:00:41;3.90;83.90
11140;DHT22;5624;49.388;11.350;2023-02-04T02:03:08;3.90;84.60
11140;DHT22;5624;49.388;11.350;2023-02-04T02:05:49;3.90;84.50
11140;DHT22;5624;49.388;11.350;2023-02-04T02:08:17;3.90;84.30
11140;DHT22;5624;49.388;11.350;2023-02-04T02:10:44;4.00;84.40
11140;DHT22;5624;49.388;11.350;2023-02-04T02:13:13;3.90;84.50
11140;DHT22;5624;49.388;11.350;2023-02-04T02:15:40;4.00;84.20
11140;DHT22;5624;49.388;11.350;2023-02-04T02:18:06;3.90;83.20
11140;DHT22;5624;49.388;11.350;2023-02-04T02:20:32;3.90;82.80
11140;DHT22;5624;49.388;11.350;2023-02-04T02:25:42;3.90;81.80
11140;DHT22;5624;49.388;11.350;2023-02-04T02:28:11;3.90;81.50
11140;DHT22;5624;49.388;11.350;2023-02-04T02:30:37;3.90;82.00
11140;DHT22;5624;49.388;11.350;2023-02-04T02:33:04;3.80;81.40
11140;DHT22;5624;49.388;11.350;2023-02-04T02:35:30;3.80;80.70
11140;DHT22;5624;49.388;11.350;2023-02-04T02:37:56;3.80;81.30
11140;DHT22;5624;49.388;11.350;2023-02-04T02:40:22;3.80;81.00
11140;DHT22;5624;49.388;11.350;2023-02-04T02:42:50;3.80;80.10
11140;DHT22;5624;49.388;11.350;2023-02-04T02:45:27;3.80;79.90
11140;DHT22;5624;49.388;11.350;2023-02-04T02:47:55;3.80;78.90
11140;DHT22;5624;49.388;11.350;2023-02-04T02:50:24;3.70;78.40
11140;DHT22;5624;49.388;11.350;2023-02-04T02:52:51;3.70;79.40
11140;DHT22;5624;49.388;11.350;2023-02-04T02:55:19;3.70;78.30
11140;DHT22;5624;49.388;11.350;2023-02-04T02:57:47;3.80;78.40
11140;DHT22;5624;49.388;11.350;2023-02-04T03:00:15;3.70;77.90
11140;DHT22;5624;49.388;11.350;2023-02-04T03:02:41;3.70;77.90
11140;DHT22;5624;49.388;11.350;2023-02-04T03:05:07;3.60;77.70
11140;DHT22;5624;49.388;11.350;2023-02-04T03:07:33;3.70;77.50
11140;DHT22;5624;49.388;11.350;2023-02-04T03:09:59;3.70;77.90
11140;DHT22;5624;49.388;11.350;2023-02-04T03:12:24;3.70;78.40
11140;DHT22;5624;49.388;11.350;2023-02-04T03:14:50;3.60;78.90
11140;DHT22;5624;49.388;11.350;2023-02-04T03:17:16;3.60;79.30
11140;DHT22;5624;49.388;11.350;2023-02-04T03:19:42;3.60;79.90
11140;DHT22;5624;49.388;11.350;2023-02-04T03:22:08;3.60;80.10
11140;DHT22;5624;49.388;11.350;2023-02-04T03:24:35;3.60;80.80
11140;DHT22;5624;49.388;11.350;2023-02-04T03:27:01;3.60;81.10
11140;DHT22;5624;49.388;11.350;2023-02-04T03:29:26;3.50;81.30
11140;DHT22;5624;49.388;11.350;2023-02-04T03:31:52;3.50;81.50
11140;DHT22;5624;49.388;11.350;2023-02-04T03:34:20;3.50;81.20
11140;DHT22;5624;49.388;11.350;2023-02-04T03:36:46;3.50;81.50
11140;DHT22;5624;49.388;11.350;2023-02-04T03:39:12;3.50;81.60
11140;DHT22;5624;49.388;11.350;2023-02-04T03:41:37;3.50;81.40
11140;DHT22;5624;49.388;11.350;2023-02-04T03:44:03;3.50;81.20
11140;DHT22;5624;49.388;11.350;2023-02-04T03:46:28;3.50;81.50
11140;DHT22;5624;49.388;11.350;2023-02-04T03:48:54;3.50;81.30
11140;DHT22;5624;49.388;11.350;2023-02-04T03:51:20;3.50;81.30
11140;DHT22;5624;49.388;11.350;2023-02-04T03:53:45;3.40;81.20
11140;DHT22;5624;49.388;11.350;2023-02-04T03:56:11;3.40;81.40
11140;DHT22;5624;49.388;11.350;2023-02-04T03:58:36;3.40;80.90
11140;DHT22;5624;49.388;11.350;2023-02-04T04:01:02;3.40;81.20
11140;DHT22;5624;49.388;11.350;2023-02-04T04:03:27;3.40;80.30
11140;DHT22;5624;49.388;11.350;2023-02-04T04:05:53;3.30;80.60
11140;DHT22;5624;49.388;11.350;2023-02-04T04:08:19;3.40;80.60
11140;DHT22;5624;49.388;11.350;2023-02-04T04:10:44;3.30;81.00
11140;DHT22;5624;49.388;11.350;2023-02-04T04:13:10;3.30;80.40
11140;DHT22;5624;49.388;11.350;2023-02-04T04:15:35;3.30;80.50
11140;DHT22;5624;49.388;11.350;2023-02-04T04:18:01;3.30;80.30
11140;DHT22;5624;49.388;11.350;2023-02-04T04:20:28;3.30;80.50
11140;DHT22;5624;49.388;11.350;2023-02-04T04:22:54;3.30;80.40
11140;DHT22;5624;49.388;11.350;2023-02-04T04:25:20;3.30;80.80
11140;DHT22;5624;49.388;11.350;2023-02-04T04:27:45;3.20;80.80
11140;DHT22;5624;49.388;11.350;2023-02-04T04:30:11;3.20;80.80
11140;DHT22;5624;49.388;11.350;2023-02-04T04:32:36;3.30;80.90
11140;DHT22;5624;49.388;11.350;2023-02-04T04:35:02;3.20;80.80
11140;DHT22;5624;49.388;11.350;2023-02-04T04:37:28;3.20;80.90
11140;DHT22;5624;49.388;11.350;2023-02-04T04:39:54;3.20;81.40
11140;DHT22;5624;49.388;11.350;2023-02-04T04:42:19;3.20;81.50
11140;DHT22;5624;49.388;11.350;2023-02-04T04:44:45;3.30;81.40
11140;DHT22;5624;49.388;11.350;2023-02-04T04:47:10;3.30;81.40
11140;DHT22;5624;49.388;11.350;2023-02-04T04:49:36;3.20;81.60
11140;DHT22;5624;49.388;11.350;2023-02-04T04:52:01;3.20;82.00
11140;DHT22;5624;49.388;11.350;2023-02-04T04:54:27;3.20;82.30
11140;DHT22;5624;49.388;11.350;2023-02-04T04:56:52;3.20;82.30
11140;DHT22;5624;49.388;11.350;2023-02-04T04:59:18;3.20;82.30
11140;DHT22;5624;49.388;11.350;2023-02-04T05:01:44;3.20;82.50
11140;DHT22;5624;49.388;11.350;2023-02-04T05:04:09;3.20;82.70
11140;DHT22;5624;49.388;11.350;2023-02-04T05:06:35;3.10;83.50
11140;DHT22;5624;49.388;11.350;2023-02-04T05:09:00;3.20;83.60
11140;DHT22;5624;49.388;11.350;2023-02-04T05:11:26;3.10;83.80
11140;DHT22;5624;49.388;11.350;2023-02-04T05:13:51;3.10;84.40
11140;DHT22;5624;49.388;11.350;2023-02-04T05:16:17;3.10;84.50
11140;DHT22;5624;49.388;11.350;2023-02-04T05:18:43;3.10;84.80
11140;DHT22;5624;49.388;11.350;2023-02-04T05:21:08;3.10;84.80
11140;DHT22;5624;49.388;11.350;2023-02-04T05:23:34;3.10;85.00
11140;DHT22;5624;49.388;11.350;2023-02-04T05:26:00;3.00;84.60
11140;DHT22;5624;49.388;11.350;2023-02-04T05:28:25;2.90;84.90
11140;DHT22;5624;49.388;11.350;2023-02-04T05:30:51;2.90;85.20
11140;DHT22;5624;49.388;11.350;2023-02-04T05:33:17;2.80;85.30
11140;DHT22;5624;49.388;11.350;2023-02-04T05:35:43;2.80;85.00
11140;DHT22;5624;49.388;11.350;2023-02-04T05:38:08;2.70;85.40
11140;DHT22;5624;49.388;11.350;2023-02-04T05:40:34;2.70;85.00
11140;DHT22;5624;49.388;11.350;2023-02-04T05:43:00;2.70;85.00
11140;DHT22;5624;49.388;11.350;2023-02-04T05:45:25;2.60;85.70
11140;DHT22;5624;49.388;11.350;2023-02-04T05:47:51;2.60;85.70
11140;DHT22;5624;49.388;11.350;2023-02-04T05:50:17;2.60;85.10
11140;DHT22;5624;49.388;11.350;2023-02-04T05:52:42;2.70;85.30
11140;DHT22;5624;49.388;11.350;2023-02-04T05:55:10;2.70;85.10
11140;DHT22;5624;49.388;11.350;2023-02-04T05:57:36;2.70;85.00
11140;DHT22;5624;49.388;11.350;2023-02-04T06:00:04;2.80;85.20
11140;DHT22;5624;49.388;11.350;2023-02-04T06:02:30;2.80;84.60
11140;DHT22;5624;49.388;11.350;2023-02-04T06:04:56;2.80;84.50
11140;DHT22;5624;49.388;11.350;2023-02-04T06:07:21;2.30;87.60
11140;DHT22;5624;49.388;11.350;2023-02-04T06:09:47;1.90;90.50
11140;DHT22;5624;49.388;11.350;2023-02-04T06:12:12;1.60;92.10
11140;DHT22;5624;49.388;11.350;2023-02-04T06:14:38;1.40;93.30
11140;DHT22;5624;49.388;11.350;2023-02-04T06:17:03;1.20;94.70
11140;DHT22;5624;49.388;11.350;2023-02-04T06:19:29;1.10;94.90
11140;DHT22;5624;49.388;11.350;2023-02-04T06:21:55;1.10;95.10
11140;DHT22;5624;49.388;11.350;2023-02-04T06:24:20;1.10;95.20
11140;DHT22;5624;49.388;11.350;2023-02-04T06:26:46;1.10;95.20
11140;DHT22;5624;49.388;11.350;2023-02-04T06:29:11;1.10;95.40
11140;DHT22;5624;49.388;11.350;2023-02-04T06:31:37;1.00;96.00
11140;DHT22;5624;49.388;11.350;2023-02-04T06:34:04;0.80;95.20
11140;DHT22;5624;49.388;11.350;2023-02-04T06:36:30;0.80;95.50
11140;DHT22;5624;49.388;11.350;2023-02-04T06:38:55;0.80;95.80
11140;DHT22;5624;49.388;11.350;2023-02-04T06:41:22;0.70;95.00
11140;DHT22;5624;49.388;11.350;2023-02-04T06:43:47;0.70;94.90
11140;DHT22;5624;49.388;11.350;2023-02-04T06:46:13;0.80;94.70
11140;DHT22;5624;49.388;11.350;2023-02-04T06:48:38;0.80;94.40
11140;DHT22;5624;49.388;11.350;2023-02-04T06:51:04;1.00;91.30
11140;DHT22;5624;49.388;11.350;2023-02-04T06:53:30;0.90;92.10
11140;DHT22;5624;49.388;11.350;2023-02-04T06:55:57;1.00;91.10
11140;DHT22;5624;49.388;11.350;2023-02-04T06:58:22;0.90;91.40
11140;DHT22;5624;49.388;11.350;2023-02-04T07:00:48;0.90;92.70
11140;DHT22;5624;49.388;11.350;2023-02-04T07:03:14;0.90;92.60
11140;DHT22;5624;49.388;11.350;2023-02-04T07:05:39;0.90;93.10
11140;DHT22;5624;49.388;11.350;2023-02-04T07:08:05;0.90;92.30
11140;DHT22;5624;49.388;11.350;2023-02-04T07:10:30;0.90;93.30
11140;DHT22;5624;49.388;11.350;2023-02-04T07:12:57;0.90;92.80
11140;DHT22;5624;49.388;11.350;2023-02-04T07:15:23;1.00;92.10
11140;DHT22;5624;49.388;11.350;2023-02-04T07:17:49;1.00;91.10
11140;DHT22;5624;49.388;11.350;2023-02-04T07:20:14;1.10;91.30
11140;DHT22;5624;49.388;11.350;2023-02-04T07:22:40;1.10;91.90
11140;DHT22;5624;49.388;11.350;2023-02-04T07:25:07;1.10;92.50
11140;DHT22;5624;49.388;11.350;2023-02-04T07:27:32;1.10;92.60
11140;DHT22;5624;49.388;11.350;2023-02-04T07:29:58;1.20;89.90
11140;DHT22;5624;49.388;11.350;2023-02-04T07:32:24;1.20;89.70
11140;DHT22;5624;49.388;11.350;2023-02-04T07:34:52;1.30;90.20
11140;DHT22;5624;49.388;11.350;2023-02-04T07:37:17;1.30;89.80
11140;DHT22;5624;49.388;11.350;2023-02-04T07:39:44;1.30;88.60
11140;DHT22;5624;49.388;11.350;2023-02-04T07:42:10;1.30;89.10
11140;DHT22;5624;49.388;11.350;2023-02-04T07:44:36;1.30;88.60
11140;DHT22;5624;49.388;11.350;2023-02-04T07:47:02;1.40;88.90
11140;DHT22;5624;49.388;11.350;2023-02-04T07:49:28;1.40;89.00
11140;DHT22;5624;49.388;11.350;2023-02-04T07:51:53;1.50;88.80
11140;DHT22;5624;49.388;11.350;2023-02-04T07:54:19;1.50;88.10
11140;DHT22;5624;49.388;11.350;2023-02-04T07:56:44;1.60;88.60
11140;DHT22;5624;49.388;11.350;2023-02-04T07:59:10;1.60;89.30
11140;DHT22;5624;49.388;11.350;2023-02-04T08:01:36;1.80;88.70
11140;DHT22;5624;49.388;11.350;2023-02-04T08:04:01;1.80;87.50
11140;DHT22;5624;49.388;11.350;2023-02-04T08:06:27;1.90;84.20
11140;DHT22;5624;49.388;11.350;2023-02-04T08:08:53;1.90;85.30
11140;DHT22;5624;49.388;11.350;2023-02-04T08:11:19;2.00;85.50
11140;DHT22;5624;49.388;11.350;2023-02-04T08:13:44;2.00;82.20
11140;DHT22;5624;49.388;11.350;2023-02-04T08:16:10;2.10;82.90
11140;DHT22;5624;49.388;11.350;2023-02-04T08:18:36;2.10;82.40
11140;DHT22;5624;49.388;11.350;2023-02-04T08:21:01;2.20;81.50
11140;DHT22;5624;49.388;11.350;2023-02-04T08:23:29;2.20;80.50
11140;DHT22;5624;49.388;11.350;2023-02-04T08:25:56;2.30;79.30
11140;DHT22;5624;49.388;11.350;2023-02-04T08:28:21;2.20;79.50
11140;DHT22;5624;49.388;11.350;2023-02-04T08:30:47;2.40;79.40
11140;DHT22;5624;49.388;11.350;2023-02-04T08:33:13;2.40;77.50
11140;DHT22;5624;49.388;11.350;2023-02-04T08:35:38;2.60;76.90
11140;DHT22;5624;49.388;11.350;2023-02-04T08:38:04;2.90;78.00
11140;DHT22;5624;49.388;11.350;2023-02-04T08:40:29;3.20;74.90
11140;DHT22;5624;49.388;11.350;2023-02-04T08:42:55;3.30;72.90
11140;DHT22;5624;49.388;11.350;2023-02-04T08:45:20;3.30;71.90
11140;DHT22;5624;49.388;11.350;2023-02-04T08:47:46;3.50;73.70
11140;DHT22;5624;49.388;11.350;2023-02-04T08:50:12;3.40;73.50
11140;DHT22;5624;49.388;11.350;2023-02-04T08:52:37;3.30;74.00
11140;DHT22;5624;49.388;11.350;2023-02-04T08:55:03;3.30;74.20
11140;DHT22;5624;49.388;11.350;2023-02-04T08:57:29;3.20;74.70
11140;DHT22;5624;49.388;11.350;2023-02-04T08:59:55;2.80;71.80
11140;DHT22;5624;49.388;11.350;2023-02-04T09:02:20;2.50;73.60
11140;DHT22;5624;49.388;11.350;2023-02-04T09:04:46;2.20;76.10
11140;DHT22;5624;49.388;11.350;2023-02-04T09:07:12;2.00;75.30
11140;DHT22;5624;49.388;11.350;2023-02-04T09:09:37;2.20;74.00
11140;DHT22;5624;49.388;11.350;2023-02-04T09:12:03;2.30;72.90
11140;DHT22;5624;49.388;11.350;2023-02-04T09:14:29;2.40;72.70
11140;DHT22;5624;49.388;11.350;2023-02-04T09:16:54;2.20;70.20
11140;DHT22;5624;49.388;11.350;2023-02-04T09:19:20;2.60;70.10
11140;DHT22;5624;49.388;11.350;2023-02-04T09:21:51;3.30;67.40
11140;DHT22;5624;49.388;11.350;2023-02-04T09:24:16;3.70;64.90
11140;DHT22;5624;49.388;11.350;2023-02-04T09:26:42;3.80;63.80
11140;DHT22;5624;49.388;11.350;2023-02-04T09:29:07;3.90;65.40
11140;DHT22;5624;49.388;11.350;2023-02-04T09:31:33;4.30;64.10
11140;DHT22;5624;49.388;11.350;2023-02-04T09:33:59;4.40;63.10
11140;DHT22;5624;49.388;11.350;2023-02-04T09:36:24;4.40;62.30
11140;DHT22;5624;49.388;11.350;2023-02-04T09:38:53;4.00;61.30
11140;DHT22;5624;49.388;11.350;2023-02-04T09:41:18;4.00;60.50
11140;DHT22;5624;49.388;11.350;2023-02-04T09:43:44;4.40;61.90
11140;DHT22;5624;49.388;11.350;2023-02-04T09:46:22;4.20;60.50
11140;DHT22;5624;49.388;11.350;2023-02-04T09:48:48;4.00;62.40
11140;DHT22;5624;49.388;11.350;2023-02-04T09:51:18;4.30;62.70
11140;DHT22;5624;49.388;11.350;2023-02-04T09:53:45;4.30;61.10
11140;DHT22;5624;49.388;11.350;2023-02-04T09:56:11;4.20;61.50
11140;DHT22;5624;49.388;11.350;2023-02-04T09:58:39;4.30;61.00
11140;DHT22;5624;49.388;11.350;2023-02-04T10:01:14;4.30;60.70
11140;DHT22;5624;49.388;11.350;2023-02-04T10:03:41;4.10;61.50
11140;DHT22;5624;49.388;11.350;2023-02-04T10:06:15;4.10;64.00
11140;DHT22;5624;49.388;11.350;2023-02-04T10:08:41;4.10;60.80
11140;DHT22;5624;49.388;11.350;2023-02-04T10:11:09;4.00;61.10
11140;DHT22;5624;49.388;11.350;2023-02-04T10:13:37;3.70;63.40
11140;DHT22;5624;49.388;11.350;2023-02-04T10:16:13;3.70;61.70
11140;DHT22;5624;49.388;11.350;2023-02-04T10:18:39;3.90;62.50
11140;DHT22;5624;49.388;11.350;2023-02-04T10:21:20;4.10;61.30
11140;DHT22;5624;49.388;11.350;2023-02-04T10:23:48;3.90;59.90
11140;DHT22;5624;49.388;11.350;2023-02-04T10:26:16;3.90;61.70
11140;DHT22;5624;49.388;11.350;2023-02-04T10:28:43;4.50;60.50
11140;DHT22;5624;49.388;11.350;2023-02-04T10:34:17;4.70;59.80
11140;DHT22;5624;49.388;11.350;2023-02-04T10:36:53;4.70;57.50
11140;DHT22;5624;49.388;11.350;2023-02-04T10:39:22;4.40;57.60
11140;DHT22;5624;49.388;11.350;2023-02-04T10:41:52;4.10;58.50
11140;DHT22;5624;49.388;11.350;2023-02-04T10:44:26;3.80;60.70
11140;DHT22;5624;49.388;11.350;2023-02-04T10:47:12;3.60;61.70
11140;DHT22;5624;49.388;11.350;2023-02-04T10:49:39;3.50;64.80
11140;DHT22;5624;49.388;11.350;2023-02-04T10:52:15;3.50;64.90
11140;DHT22;5624;49.388;11.350;2023-02-04T10:54:41;3.50;63.00
11140;DHT22;5624;49.388;11.350;2023-02-04T10:57:17;3.30;63.30
11140;DHT22;5624;49.388;11.350;2023-02-04T10:59:45;3.10;63.80
11140;DHT22;5624;49.388;11.350;2023-02-04T11:04:55;2.90;65.00
11140;DHT22;5624;49.388;11.350;2023-02-04T11:07:21;2.90;66.10
11140;DHT22;5624;49.388;11.350;2023-02-04T11:09:48;2.90;66.00
11140;DHT22;5624;49.388;11.350;2023-02-04T11:12:45;2.90;65.70
11140;DHT22;5624;49.388;11.350;2023-02-04T11:18:08;2.80;67.90
11140;DHT22;5624;49.388;11.350;2023-02-04T11:20:35;2.90;68.80
11140;DHT22;5624;49.388;11.350;2023-02-04T11:26:19;3.20;67.00
11140;DHT22;5624;49.388;11.350;2023-02-04T11:31:28;3.30;64.90
11140;DHT22;5624;49.388;11.350;2023-02-04T11:34:11;3.30;62.20
11140;DHT22;5624;49.388;11.350;2023-02-04T11:39:39;3.00;64.30
11140;DHT22;5624;49.388;11.350;2023-02-04T11:44:50;2.80;63.90
11140;DHT22;5624;49.388;11.350;2023-02-04T11:47:16;2.80;64.70
11140;DHT22;5624;49.388;11.350;2023-02-04T11:49:42;3.00;65.00
11140;DHT22;5624;49.388;11.350;2023-02-04T11:52:13;3.00;63.30
11140;DHT22;5624;49.388;11.350;2023-02-04T11:54:39;3.00;63.70
11140;DHT22;5624;49.388;11.350;2023-02-04T11:57:05;3.00;63.20
11140;DHT22;5624;49.388;11.350;2023-02-04T11:59:31;3.00;63.60
11140;DHT22;5624;49.388;11.350;2023-02-04T12:02:17;3.00;62.70
11140;DHT22;5624;49.388;11.350;2023-02-04T12:05:11;2.80;62.20
11140;DHT22;5624;49.388;11.350;2023-02-04T12:07:37;2.70;64.20
11140;DHT22;5624;49.388;11.350;2023-02-04T12:10:22;2.70;64.90
11140;DHT22;5624;49.388;11.350;2023-02-04T12:12:54;2.90;65.20
11140;DHT22;5624;49.388;11.350;2023-02-04T12:15:33;3.10;63.30
11140;DHT22;5624;49.388;11.350;2023-02-04T12:18:04;3.20;61.80
11140;DHT22;5624;49.388;11.350;2023-02-04T12:20:32;3.30;60.70
11140;DHT22;5624;49.388;11.350;2023-02-04T12:22:57;3.50;61.40
11140;DHT22;5624;49.388;11.350;2023-02-04T12:25:24;3.80;61.10
11140;DHT22;5624;49.388;11.350;2023-02-04T12:27:50;3.90;58.20
11140;DHT22;5624;49.388;11.350;2023-02-04T12:30:16;3.70;58.70
11140;DHT22;5624;49.388;11.350;2023-02-04T12:32:43;3.90;60.60
11140;DHT22;5624;49.388;11.350;2023-02-04T12:35:08;4.10;57.10
11140;DHT22;5624;49.388;11.350;2023-02-04T12:37:34;4.10;56.90
11140;DHT22;5624;49.388;11.350;2023-02-04T12:39:59;4.10;56.50
11140;DHT22;5624;49.388;11.350;2023-02-04T12:42:25;4.10;56.50
11140;DHT22;5624;49.388;11.350;2023-02-04T12:44:50;4.20;58.20
11140;DHT22;5624;49.388;11.350;2023-02-04T12:47:16;4.20;56.70
11140;DHT22;5624;49.388;11.350;2023-02-04T12:49:42;4.10;56.60
11140;DHT22;5624;49.388;11.350;2023-02-04T12:52:08;4.00;57.60
11140;DHT22;5624;49.388;11.350;2023-02-04T12:54:34;4.00;57.70
11140;DHT22;5624;49.388;11.350;2023-02-04T12:57:00;4.10;57.40
11140;DHT22;5624;49.388;11.350;2023-02-04T12:59:27;4.10;57.80
11140;DHT22;5624;49.388;11.350;2023-02-04T13:01:55;4.00;58.10
11140;DHT22;5624;49.388;11.350;2023-02-04T13:04:20;4.10;57.20
11140;DHT22;5624;49.388;11.350;2023-02-04T13:06:46;4.00;58.20
11140;DHT22;5624;49.388;11.350;2023-02-04T13:09:11;3.80;58.10
11140;DHT22;5624;49.388;11.350;2023-02-04T13:11:37;3.70;58.30
11140;DHT22;5624;49.388;11.350;2023-02-04T13:14:03;3.80;58.00
11140;DHT22;5624;49.388;11.350;2023-02-04T13:16:28;3.70;57.30
11140;DHT22;5624;49.388;11.350;2023-02-04T13:18:54;3.60;57.10
11140;DHT22;5624;49.388;11.350;2023-02-04T13:21:19;3.60;57.30
11140;DHT22;5624;49.388;11.350;2023-02-04T13:23:45;3.80;58.60
11140;DHT22;5624;49.388;11.350;2023-02-04T13:26:11;4.00;58.50
11140;DHT22;5624;49.388;11.350;2023-02-04T13:28:36;4.20;56.30
11140;DHT22;5624;49.388;11.350;2023-02-04T13:31:02;4.60;55.70
11140;DHT22;5624;49.388;11.350;2023-02-04T13:33:28;4.80;54.80
11140;DHT22;5624;49.388;11.350;2023-02-04T13:35:53;4.90;55.30
11140;DHT22;5624;49.388;11.350;2023-02-04T13:38:19;5.00;54.20
11140;DHT22;5624;49.388;11.350;2023-02-04T13:40:45;4.80;53.80
11140;DHT22;5624;49.388;11.350;2023-02-04T13:43:10;4.70;53.10
11140;DHT22;5624;49.388;11.350;2023-02-04T13:45:36;4.20;54.60
11140;DHT22;5624;49.388;11.350;2023-02-04T13:48:01;3.90;55.80
11140;DHT22;5624;49.388;11.350;2023-02-04T13:50:28;3.80;57.40
11140;DHT22;5624;49.388;11.350;2023-02-04T13:52:54;3.70;57.90
11140;DHT22;5624;49.388;11.350;2023-02-04T13:55:20;3.70;58.30
11140;DHT22;5624;49.388;11.350;2023-02-04T13:57:45;3.80;58.10
11140;DHT22;5624;49.388;11.350;2023-02-04T14:00:11;3.80;58.70
11140;DHT22;5624;49.388;11.350;2023-02-04T14:02:37;3.80;56.60
11140;DHT22;5624;49.388;11.350;2023-02-04T14:05:03;3.90;57.40
11140;DHT22;5624;49.388;11.350;2023-02-04T14:07:29;4.00;57.90
11140;DHT22;5624;49.388;11.350;2023-02-04T14:09:55;3.80;56.80
11140;DHT22;5624;49.388;11.350;2023-02-04T14:12:20;3.90;56.20
11140;DHT22;5624;49.388;11.350;2023-02-04T14:14:46;3.70;56.40
11140;DHT22;5624;49.388;11.350;2023-02-04T14:17:11;3.70;56.00
11140;DHT22;5624;49.388;11.350;2023-02-04T14:19:37;3.60;55.00
11140;DHT22;5624;49.388;11.350;2023-02-04T14:22:03;3.70;55.40
11140;DHT22;5624;49.388;11.350;2023-02-04T14:24:28;3.80;54.40
11140;DHT22;5624;49.388;11.350;2023-02-04T14:26:54;3.60;55.40
11140;DHT22;5624;49.388;11.350;2023-02-04T14:29:20;3.70;54.50
11140;DHT22;5624;49.388;11.350;2023-02-04T14:31:46;3.70;55.60
11140;DHT22;5624;49.388;11.350;2023-02-04T14:34:12;3.50;56.20
11140;DHT22;5624;49.388;11.350;2023-02-04T14:36:37;3.60;58.60
11140;DHT22;5624;49.388;11.350;2023-02-04T14:39:03;3.50;59.90
11140;DHT22;5624;49.388;11.350;2023-02-04T14:41:29;3.50;60.00
11140;DHT22;5624;49.388;11.350;2023-02-04T14:43:56;3.50;60.30
11140;DHT22;5624;49.388;11.350;2023-02-04T14:46:22;3.40;59.70
11140;DHT22;5624;49.388;11.350;2023-02-04T14:48:48;3.30;59.80
11140;DHT22;5624;49.388;11.350;2023-02-04T14:51:16;3.00;60.10
11140;DHT22;5624;49.388;11.350;2023-02-04T14:53:42;2.80;61.30
11140;DHT22;5624;49.388;11.350;2023-02-04T14:56:07;2.70;61.00
11140;DHT22;5624;49.388;11.350;2023-02-04T14:58:33;2.60;61.60
11140;DHT22;5624;49.388;11.350;2023-02-04T15:00:58;2.30;63.10
11140;DHT22;5624;49.388;11.350;2023-02-04T15:03:24;2.20;62.30
11140;DHT22;5624;49.388;11.350;2023-02-04T15:05:50;2.10;62.70
11140;DHT22;5624;49.388;11.350;2023-02-04T15:08:15;2.10;62.40
11140;DHT22;5624;49.388;11.350;2023-02-04T15:10:41;2.10;62.40
11140;DHT22;5624;49.388;11.350;2023-02-04T15:13:07;2.10;63.20
11140;DHT22;5624;49.388;11.350;2023-02-04T15:15:33;2.00;63.80
11140;DHT22;5624;49.388;11.350;2023-02-04T15:17:58;2.10;62.00
11140;DHT22;5624;49.388;11.350;2023-02-04T15:20:24;2.10;62.20
11140;DHT22;5624;49.388;11.350;2023-02-04T15:22:49;2.10;62.20
11140;DHT22;5624;49.388;11.350;2023-02-04T15:25:17;2.20;61.00
11140;DHT22;5624;49.388;11.350;2023-02-04T15:27:43;2.10;61.60
11140;DHT22;5624;49.388;11.350;2023-02-04T15:30:09;2.10;62.50
11140;DHT22;5624;49.388;11.350;2023-02-04T15:32:34;2.00;62.30
11140;DHT22;5624;49.388;11.350;2023-02-04T15:35:00;2.00;61.90
11140;DHT22;5624;49.388;11.350;2023-02-04T15:37:26;1.90;62.10
11140;DHT22;5624;49.388;11.350;2023-02-04T15:39:52;1.80;62.00
11140;DHT22;5624;49.388;11.350;2023-02-04T15:42:17;1.80;63.80
11140;DHT22;5624;49.388;11.350;2023-02-04T15:44:43;1.60;64.30
11140;DHT22;5624;49.388;11.350;2023-02-04T15:47:08;1.50;64.50
11140;DHT22;5624;49.388;11.350;2023-02-04T15:49:34;1.40;64.80
11140;DHT22;5624;49.388;11.350;2023-02-04T15:52:00;1.40;65.10
11140;DHT22;5624;49.388;11.350;2023-02-04T15:54:26;1.30;64.20
11140;DHT22;5624;49.388;11.350;2023-02-04T15:56:52;1.20;65.20
11140;DHT22;5624;49.388;11.350;2023-02-04T15:59:18;1.20;65.50
11140;DHT22;5624;49.388;11.350;2023-02-04T16:01:43;1.10;65.90
11140;DHT22;5624;49.388;11.350;2023-02-04T16:04:09;1.10;66.20